createdAt,value
2022-11-22T00:00:26.950Z,25.82
2022-11-22T00:02:27.131Z,25.85
2022-11-22T00:04:27.057Z,25.83
2022-11-22T00:06:27.028Z,25.95
2022-11-22T00:08:27.068Z,25.85
2022-11-22T00:10:27.052Z,25.86
2022-11-22T00:12:26.958Z,26.00
2022-11-22T00:14:26.954Z,25.82
2022-11-22T00:16:27.040Z,25.90
2022-11-22T00:18:26.997Z,25.88
2022-11-22T00:20:27.022Z,25.83
2022-11-22T00:22:27.049Z,25.51
2022-11-22T00:24:27.069Z,25.60
2022-11-22T00:26:27.050Z,25.84
2022-11-22T00:28:27.044Z,25.88
2022-11-22T00:30:27.098Z,25.79
2022-11-22T00:32:27.069Z,25.60
2022-11-22T00:34:27.079Z,25.97
2022-11-22T00:36:27.064Z,25.88
2022-11-22T00:38:26.998Z,25.80
2022-11-22T00:40:27.055Z,25.83
2022-11-22T00:42:27.071Z,25.95
2022-11-22T00:44:27.090Z,25.93
2022-11-22T00:46:26.911Z,25.90
2022-11-22T00:48:27.072Z,26.00
2022-11-22T00:50:27.032Z,25.99
2022-11-22T00:52:27.001Z,25.85
2022-11-22T00:54:27.064Z,25.90
2022-11-22T00:56:27.002Z,25.90
2022-11-22T00:58:27.197Z,25.88
2022-11-22T01:00:27.078Z,25.89
2022-11-22T01:02:26.940Z,25.86
2022-11-22T01:04:27.133Z,25.92
2022-11-22T01:06:26.938Z,25.84
2022-11-22T01:08:26.975Z,25.65
2022-11-22T01:10:26.963Z,25.86
2022-11-22T01:12:27.105Z,25.65
2022-11-22T01:14:27.127Z,25.77
2022-11-22T01:16:27.144Z,25.57
2022-11-22T01:18:27.019Z,25.99
2022-11-22T01:20:27.120Z,25.94
2022-11-22T01:22:27.111Z,25.88
2022-11-22T01:24:27.025Z,25.93
2022-11-22T01:26:27.168Z,25.89
2022-11-22T01:28:27.153Z,25.85
2022-11-22T01:30:27.123Z,25.88
2022-11-22T01:32:27.082Z,25.82
2022-11-22T01:34:27.129Z,25.90
2022-11-22T01:36:26.995Z,25.89
2022-11-22T01:38:27.188Z,25.91
2022-11-22T01:40:27.099Z,25.78
2022-11-22T01:42:27.105Z,25.45
2022-11-22T01:44:27.118Z,25.83
2022-11-22T01:46:27.161Z,25.86
2022-11-22T01:48:26.985Z,25.85
2022-11-22T01:50:27.012Z,25.86
2022-11-22T01:52:27.157Z,25.82
2022-11-22T01:54:27.180Z,25.83
2022-11-22T01:56:27.160Z,25.92
2022-11-22T01:58:27.139Z,25.80
2022-11-22T02:00:27.069Z,25.93
2022-11-22T02:02:27.182Z,25.91
2022-11-22T02:04:27.118Z,25.94
2022-11-22T02:06:27.171Z,25.88
2022-11-22T02:08:27.038Z,25.96
2022-11-22T02:10:27.017Z,26.03
2022-11-22T02:12:27.166Z,26.03
2022-11-22T02:14:27.184Z,25.93
2022-11-22T02:16:27.212Z,25.89
2022-11-22T02:18:27.055Z,25.96
2022-11-22T02:20:27.119Z,25.84
2022-11-22T02:22:27.202Z,25.80
2022-11-22T02:24:27.205Z,25.65
2022-11-22T02:26:27.141Z,25.58
2022-11-22T02:28:27.179Z,25.85
2022-11-22T02:30:27.029Z,25.56
2022-11-22T02:32:27.222Z,25.79
2022-11-22T02:34:27.173Z,25.52
2022-11-22T02:36:27.155Z,25.61
2022-11-22T02:38:27.148Z,25.80
2022-11-22T02:40:27.249Z,25.52
2022-11-22T02:42:27.218Z,25.90
2022-11-22T02:44:27.186Z,25.91
2022-11-22T02:46:27.138Z,25.91
2022-11-22T02:48:27.245Z,25.84
2022-11-22T02:50:27.097Z,25.86
2022-11-22T02:52:27.287Z,25.92
2022-11-22T02:54:27.239Z,25.86
2022-11-22T02:56:27.228Z,25.96
2022-11-22T02:58:27.241Z,25.93
2022-11-22T03:00:27.208Z,25.90
2022-11-22T03:02:27.179Z,25.93
2022-11-22T03:04:27.058Z,25.82
2022-11-22T03:06:27.288Z,25.75
2022-11-22T03:08:27.259Z,25.81
2022-11-22T03:10:27.130Z,25.63
2022-11-22T03:12:27.246Z,25.82
2022-11-22T03:14:27.172Z,25.53
2022-11-22T03:16:27.261Z,25.60
2022-11-22T03:18:27.237Z,25.81
2022-11-22T03:20:27.231Z,25.80
2022-11-22T03:22:27.079Z,25.63
2022-11-22T03:24:27.244Z,25.54
2022-11-22T03:26:27.258Z,25.82
2022-11-22T03:28:27.266Z,25.82
2022-11-22T03:30:27.267Z,25.79
2022-11-22T03:32:27.180Z,25.65
2022-11-22T03:34:27.290Z,25.75
2022-11-22T03:36:27.216Z,25.86
2022-11-22T03:38:27.323Z,25.86
2022-11-22T03:40:27.125Z,25.80
2022-11-22T03:42:27.125Z,25.88
2022-11-22T03:44:27.131Z,25.85
2022-11-22T03:46:27.228Z,25.75
2022-11-22T03:48:27.162Z,25.65
2022-11-22T03:50:27.290Z,25.77
2022-11-22T03:52:27.313Z,25.83
2022-11-22T03:54:27.232Z,25.90
2022-11-22T03:56:27.187Z,25.97
2022-11-22T03:58:27.346Z,25.80
2022-11-22T04:00:27.150Z,25.86
2022-11-22T04:02:27.283Z,25.83
2022-11-22T04:04:27.136Z,25.75
2022-11-22T04:06:27.262Z,25.84
2022-11-22T04:08:27.227Z,25.80
2022-11-22T04:10:27.225Z,25.93
2022-11-22T04:12:27.304Z,25.85
2022-11-22T04:14:27.310Z,25.81
2022-11-22T04:16:27.333Z,25.75
2022-11-22T04:18:27.147Z,25.81
2022-11-22T04:20:27.320Z,25.79
2022-11-22T04:22:27.301Z,25.79
2022-11-22T04:24:27.230Z,25.80
2022-11-22T04:26:27.292Z,25.91
2022-11-22T04:28:53.709Z,25.75
2022-11-22T04:30:27.315Z,26.00
2022-11-22T04:32:27.168Z,25.92
2022-11-22T04:34:27.158Z,25.92
2022-11-22T04:36:27.184Z,25.89
2022-11-22T04:38:27.310Z,25.93
2022-11-22T04:40:27.244Z,25.89
2022-11-22T04:42:27.242Z,26.00
2022-11-22T04:44:27.146Z,25.88
2022-11-22T04:46:27.374Z,25.85
2022-11-22T04:48:27.252Z,25.93
2022-11-22T04:50:27.344Z,25.90
2022-11-22T04:52:27.183Z,25.91
2022-11-22T04:54:27.354Z,25.89
2022-11-22T04:56:27.172Z,25.92
2022-11-22T04:58:27.342Z,25.96
2022-11-22T05:00:27.396Z,25.88
2022-11-22T05:02:27.333Z,25.96
2022-11-22T05:04:27.340Z,25.89
2022-11-22T05:06:27.313Z,25.88
2022-11-22T05:08:27.374Z,25.92
2022-11-22T05:10:27.468Z,25.81
2022-11-22T05:12:27.307Z,25.86
2022-11-22T05:14:27.245Z,25.80
2022-11-22T05:16:27.360Z,25.84
2022-11-22T05:18:27.268Z,25.80
2022-11-22T05:20:27.333Z,25.89
2022-11-22T05:22:27.347Z,25.89
2022-11-22T05:24:27.360Z,25.99
2022-11-22T05:26:27.421Z,25.88
2022-11-22T05:28:27.308Z,25.80
2022-11-22T05:30:27.358Z,25.97
2022-11-22T05:32:27.418Z,25.90
2022-11-22T05:34:27.294Z,25.93
2022-11-22T05:36:27.283Z,26.01
2022-11-22T05:38:27.443Z,25.93
2022-11-22T05:40:27.391Z,25.90
2022-11-22T05:42:27.408Z,25.90
2022-11-22T05:44:27.403Z,25.89
2022-11-22T05:46:27.425Z,25.93
2022-11-22T05:48:27.323Z,25.91
2022-11-22T05:50:27.406Z,25.93
2022-11-22T05:52:27.411Z,25.93
2022-11-22T05:54:27.410Z,25.90
2022-11-22T05:56:27.413Z,25.90
2022-11-22T05:58:27.393Z,25.84
2022-11-22T06:00:27.447Z,25.97
2022-11-22T06:02:27.424Z,25.90
2022-11-22T06:04:27.317Z,25.95
2022-11-22T06:06:27.306Z,25.93
2022-11-22T06:08:27.435Z,25.89
2022-11-22T06:10:27.423Z,25.99
2022-11-22T06:12:27.380Z,25.96
2022-11-22T06:14:27.439Z,25.99
2022-11-22T06:16:27.414Z,25.99
2022-11-22T06:18:27.451Z,25.97
2022-11-22T06:20:27.373Z,24.79
2022-11-22T06:22:27.359Z,25.04
2022-11-22T06:24:27.476Z,24.94
2022-11-22T06:26:27.396Z,24.82
2022-11-22T06:28:27.408Z,24.86
2022-11-22T06:30:27.348Z,24.71
2022-11-22T06:32:27.559Z,24.66
2022-11-22T06:34:27.456Z,24.71
2022-11-22T06:36:27.422Z,24.57
2022-11-22T06:38:27.392Z,24.55
2022-11-22T06:40:27.453Z,24.49
2022-11-22T06:42:27.397Z,24.59
2022-11-22T06:44:27.483Z,24.41
2022-11-22T06:46:27.441Z,24.44
2022-11-22T06:48:27.456Z,24.38
2022-11-22T06:50:27.585Z,24.38
2022-11-22T06:52:27.478Z,24.38
2022-11-22T06:54:27.476Z,24.37
2022-11-22T06:56:27.492Z,24.36
2022-11-22T06:58:27.482Z,24.36
2022-11-22T07:00:27.420Z,24.43
2022-11-22T07:02:27.474Z,24.38
2022-11-22T07:04:27.422Z,24.28
2022-11-22T07:06:27.487Z,24.36
2022-11-22T07:08:27.501Z,24.36
2022-11-22T07:10:27.496Z,24.36
2022-11-22T07:12:27.478Z,24.48
2022-11-22T07:14:27.504Z,24.35
2022-11-22T07:16:27.456Z,24.38
2022-11-22T07:18:27.443Z,24.35
2022-11-22T07:20:27.518Z,24.39
2022-11-22T07:22:27.388Z,24.38
2022-11-22T07:24:27.506Z,24.46
2022-11-22T07:26:27.433Z,24.53
2022-11-22T07:28:27.472Z,24.43
2022-11-22T07:30:27.501Z,24.51
2022-11-22T07:32:27.524Z,24.51
2022-11-22T07:34:27.534Z,24.66
2022-11-22T07:36:27.537Z,24.66
2022-11-22T07:38:27.531Z,24.79
2022-11-22T07:40:27.359Z,24.74
2022-11-22T07:42:27.546Z,24.76
2022-11-22T07:44:27.549Z,24.79
2022-11-22T07:46:27.415Z,24.90
2022-11-22T07:48:27.385Z,24.96
2022-11-22T07:50:27.667Z,24.94
2022-11-22T07:52:27.453Z,24.95
2022-11-22T07:54:27.500Z,25.00
2022-11-22T07:56:27.515Z,25.08
2022-11-22T07:58:27.542Z,25.12
2022-11-22T08:00:27.561Z,25.19
2022-11-22T08:02:27.614Z,25.22
2022-11-22T08:04:27.576Z,25.37
2022-11-22T08:06:27.562Z,25.45
2022-11-22T08:08:27.396Z,25.54
2022-11-22T08:10:27.457Z,25.75
2022-11-22T08:12:27.585Z,25.82
2022-11-22T08:14:27.546Z,25.80
2022-11-22T08:16:27.440Z,25.88
2022-11-22T08:18:27.602Z,25.84
2022-11-22T08:20:27.583Z,25.80
2022-11-22T08:22:27.518Z,25.80
2022-11-22T08:24:27.586Z,25.83
2022-11-22T08:26:27.555Z,25.80
2022-11-22T08:28:27.585Z,25.82
2022-11-22T08:30:27.595Z,25.83
2022-11-22T08:32:27.445Z,25.81
2022-11-22T08:34:27.481Z,25.80
2022-11-22T08:36:27.484Z,25.81
2022-11-22T08:38:27.610Z,25.80
2022-11-22T08:40:27.605Z,25.75
2022-11-22T08:42:27.590Z,25.75
2022-11-22T08:44:27.549Z,25.64
2022-11-22T08:46:27.597Z,25.52
2022-11-22T08:48:27.465Z,25.74
2022-11-22T08:50:27.611Z,25.65
2022-11-22T08:52:27.506Z,25.57
2022-11-22T08:54:27.504Z,25.65
2022-11-22T08:56:27.585Z,25.61
2022-11-22T08:58:27.656Z,25.56
2022-11-22T09:00:33.161Z,25.65
2022-11-22T09:02:27.631Z,25.71
2022-11-22T09:04:27.517Z,25.65
2022-11-22T09:08:30.032Z,25.65
2022-11-22T09:10:27.604Z,25.36
2022-11-22T09:12:27.544Z,25.74
2022-11-22T09:14:27.645Z,25.80
2022-11-22T09:16:27.614Z,25.77
2022-11-22T09:18:27.646Z,25.75
2022-11-22T09:20:27.625Z,25.77
2022-11-22T09:22:28.725Z,25.83
2022-11-22T09:24:27.636Z,25.65
2022-11-22T09:26:27.659Z,25.75
2022-11-22T09:28:27.641Z,25.64
2022-11-22T09:30:27.625Z,25.65
2022-11-22T09:32:33.376Z,25.78
2022-11-22T09:34:27.519Z,25.40
2022-11-22T09:36:27.577Z,25.46
2022-11-22T09:38:27.663Z,25.37
2022-11-22T09:40:27.577Z,25.37
2022-11-22T09:42:27.543Z,25.42
2022-11-22T09:44:27.640Z,25.45
2022-11-22T09:46:27.664Z,25.54
2022-11-22T09:48:27.668Z,25.24
2022-11-22T09:50:27.621Z,25.61
2022-11-22T09:52:27.493Z,25.53
2022-11-22T09:54:27.677Z,25.58
2022-11-22T09:56:27.697Z,25.54
2022-11-22T09:58:27.677Z,25.63
2022-11-22T10:00:27.559Z,25.52
2022-11-22T10:02:27.681Z,25.52
2022-11-22T10:04:27.537Z,25.64
2022-11-22T10:06:27.688Z,25.63
2022-11-22T10:08:27.664Z,25.79
2022-11-22T10:10:27.523Z,25.80
2022-11-22T10:12:27.935Z,25.65
2022-11-22T10:14:27.714Z,25.65
2022-11-22T10:16:27.700Z,25.65
2022-11-22T10:18:27.738Z,25.65
2022-11-22T10:20:27.718Z,25.72
2022-11-22T10:22:27.787Z,25.74
2022-11-22T10:24:27.725Z,25.72
2022-11-22T10:26:27.523Z,25.72
2022-11-22T10:28:27.830Z,25.61
2022-11-22T10:30:27.699Z,25.52
2022-11-22T10:32:27.697Z,25.53
2022-11-22T10:34:27.729Z,25.52
2022-11-22T10:36:27.596Z,25.63
2022-11-22T10:38:27.595Z,25.58
2022-11-22T10:40:27.717Z,25.52
2022-11-22T10:42:27.686Z,25.61
2022-11-22T10:44:27.736Z,25.65
2022-11-22T10:46:27.595Z,25.65
2022-11-22T10:48:27.709Z,25.58
2022-11-22T10:50:27.745Z,25.56
2022-11-22T10:52:27.722Z,25.65
2022-11-22T10:54:27.573Z,25.64
2022-11-22T10:56:27.706Z,25.75
2022-11-22T10:58:27.692Z,25.75
2022-11-22T11:00:27.652Z,25.77
2022-11-22T11:02:27.792Z,25.63
2022-11-22T11:04:27.653Z,25.64
2022-11-22T11:06:37.988Z,25.65
2022-11-22T11:08:47.740Z,25.72
2022-11-22T11:10:33.995Z,25.78
2022-11-22T11:12:27.739Z,25.72
2022-11-22T11:14:28.015Z,25.83
2022-11-22T11:16:27.745Z,25.83
2022-11-22T11:18:27.769Z,25.72
2022-11-22T11:20:27.782Z,25.80
2022-11-22T11:22:58.749Z,25.79
2022-11-22T11:24:27.907Z,25.72
2022-11-22T11:26:27.716Z,25.78
2022-11-22T11:28:27.634Z,25.75
2022-11-22T11:30:27.780Z,25.74
2022-11-22T11:32:27.676Z,25.75
2022-11-22T11:34:27.985Z,25.77
2022-11-22T11:36:27.860Z,25.81
2022-11-22T11:38:27.793Z,25.80
2022-11-22T11:40:27.778Z,25.70
2022-11-22T11:42:27.725Z,25.80
2022-11-22T11:44:28.117Z,25.80
2022-11-22T11:46:27.767Z,25.80
2022-11-22T11:48:27.694Z,24.66
2022-11-22T11:50:27.775Z,25.81
2022-11-22T11:52:27.735Z,25.72
2022-11-22T11:54:27.810Z,25.61
2022-11-22T11:56:27.791Z,25.75
2022-11-22T11:58:27.868Z,25.72
2022-11-22T12:00:27.826Z,25.79
2022-11-22T12:02:27.938Z,25.84
2022-11-22T12:04:27.686Z,25.78
2022-11-22T12:06:27.725Z,25.82
2022-11-22T12:08:27.814Z,25.82
2022-11-22T12:10:27.767Z,25.88
2022-11-22T12:12:27.819Z,25.96
2022-11-22T12:14:42.752Z,25.93
2022-11-22T12:16:27.915Z,25.83
2022-11-22T12:18:27.802Z,25.81
2022-11-22T12:20:27.830Z,25.84
2022-11-22T12:24:48.406Z,25.84
2022-11-22T12:26:27.832Z,25.89
2022-11-22T12:28:27.813Z,25.82
2022-11-22T12:30:27.796Z,25.96
2022-11-22T12:32:27.808Z,25.90
2022-11-22T12:34:27.851Z,25.75
2022-11-22T12:36:32.458Z,25.65
2022-11-22T12:38:27.847Z,25.57
2022-11-22T12:40:27.837Z,25.58
2022-11-22T12:42:27.680Z,25.65
2022-11-22T12:44:28.158Z,25.65
2022-11-22T12:46:27.848Z,25.65
2022-11-22T12:48:28.194Z,25.52
2022-11-22T12:50:27.877Z,25.72
2022-11-22T12:52:27.864Z,25.49
2022-11-22T12:54:28.267Z,25.52
2022-11-22T12:56:32.997Z,25.58
2022-11-22T12:58:27.914Z,25.54
2022-11-22T13:00:27.775Z,25.51
2022-11-22T13:02:27.752Z,25.49
2022-11-22T13:04:28.177Z,25.60
2022-11-22T13:06:27.832Z,25.52
2022-11-22T13:08:27.828Z,25.45
2022-11-22T13:10:27.878Z,25.41
2022-11-22T13:12:27.787Z,25.52
2022-11-22T13:14:27.832Z,25.49
2022-11-22T13:16:27.796Z,25.52
2022-11-22T13:18:27.809Z,25.51
2022-11-22T13:20:27.845Z,25.60
2022-11-22T13:22:27.850Z,25.54
2022-11-22T13:24:28.117Z,25.38
2022-11-22T13:26:27.890Z,25.43
2022-11-22T13:28:27.891Z,25.52
2022-11-22T13:30:27.928Z,25.52
2022-11-22T13:32:27.893Z,25.58
2022-11-22T13:34:28.007Z,25.60
2022-11-22T13:36:27.819Z,25.65
2022-11-22T13:38:27.826Z,25.52
2022-11-22T13:40:27.911Z,25.52
2022-11-22T13:42:27.916Z,25.51
2022-11-22T13:44:28.068Z,25.48
2022-11-22T13:46:27.801Z,25.38
2022-11-22T13:48:27.806Z,25.35
2022-11-22T13:50:27.907Z,25.31
2022-11-22T13:52:27.790Z,25.36
2022-11-22T13:54:28.419Z,25.33
2022-11-22T13:56:27.956Z,25.02
2022-11-22T13:58:27.910Z,25.23
2022-11-22T14:00:27.922Z,25.25
2022-11-22T14:02:28.007Z,25.20
2022-11-22T14:04:28.086Z,25.37
2022-11-22T14:06:27.969Z,25.37
2022-11-22T14:08:27.955Z,25.33
2022-11-22T14:10:27.987Z,25.37
2022-11-22T14:12:27.965Z,25.35
2022-11-22T14:14:28.329Z,25.27
2022-11-22T14:16:27.979Z,25.29
2022-11-22T14:18:28.055Z,25.81
2022-11-22T14:20:27.849Z,25.80
2022-11-22T14:22:27.985Z,25.65
2022-11-22T14:24:28.393Z,25.74
2022-11-22T14:26:27.958Z,25.72
2022-11-22T14:28:27.970Z,25.52
2022-11-22T14:30:27.865Z,25.45
2022-11-22T14:32:27.850Z,25.39
2022-11-22T14:34:28.231Z,25.44
2022-11-22T14:36:28.013Z,25.52
2022-11-22T14:38:29.083Z,25.57
2022-11-22T14:40:27.811Z,25.42
2022-11-22T14:42:27.866Z,25.29
2022-11-22T14:44:28.009Z,25.26
2022-11-22T14:46:51.643Z,25.26
2022-11-22T14:48:27.956Z,25.23
2022-11-22T14:50:27.952Z,25.29
2022-11-22T14:52:27.988Z,25.32
2022-11-22T14:54:27.928Z,25.24
2022-11-22T14:56:28.009Z,25.22
2022-11-22T14:58:28.010Z,25.26
2022-11-22T15:00:28.069Z,25.29
2022-11-22T15:02:28.074Z,25.28
2022-11-22T15:09:10.830Z,25.24
2022-11-22T15:09:11.679Z,24.86
2022-11-22T15:09:21.962Z,25.17
2022-11-22T15:10:28.311Z,24.99
2022-11-22T15:12:28.009Z,24.90
2022-11-22T15:14:27.932Z,24.82
2022-11-22T15:58:27.975Z,24.18
2022-11-22T16:00:28.107Z,24.19
2022-11-22T16:02:28.104Z,27.38
2022-11-22T16:04:28.189Z,25.93
2022-11-22T16:06:28.099Z,25.88
2022-11-22T16:08:32.665Z,25.82
2022-11-22T16:10:28.084Z,25.92
2022-11-22T16:12:28.089Z,25.88
2022-11-22T16:14:28.109Z,25.96
2022-11-22T16:16:28.059Z,25.86
2022-11-22T16:18:27.950Z,25.86
2022-11-22T16:20:28.076Z,25.90
2022-11-22T16:22:27.911Z,25.88
2022-11-22T16:24:27.961Z,25.93
2022-11-22T16:26:28.067Z,25.86
2022-11-22T16:28:28.094Z,25.88
2022-11-22T16:30:28.157Z,25.88
2022-11-22T16:32:28.088Z,25.86
2022-11-22T16:34:28.099Z,25.84
2022-11-22T16:36:27.964Z,25.91
2022-11-22T16:38:27.992Z,25.90
2022-11-22T16:40:28.015Z,25.88
2022-11-22T16:42:28.013Z,25.85
2022-11-22T16:44:28.056Z,25.85
2022-11-22T16:46:27.971Z,25.84
2022-11-22T16:48:32.258Z,25.84
2022-11-22T16:50:28.008Z,25.84
2022-11-22T16:52:28.152Z,25.85
2022-11-22T16:54:28.141Z,25.93
2022-11-22T16:56:28.109Z,25.81
2022-11-22T16:58:28.155Z,25.83
2022-11-22T17:00:27.994Z,25.83
2022-11-22T17:02:27.936Z,25.82
2022-11-22T17:04:28.124Z,25.81
2022-11-22T17:06:28.116Z,25.81
2022-11-22T17:08:28.122Z,25.79
2022-11-22T17:10:28.044Z,25.83
2022-11-22T17:12:33.493Z,25.83
2022-11-22T17:14:28.233Z,25.91
2022-11-22T17:16:28.053Z,25.82
2022-11-22T17:18:28.156Z,25.77
2022-11-22T17:20:28.146Z,25.82
2022-11-22T17:22:28.047Z,25.83
2022-11-22T17:24:28.290Z,25.93
2022-11-22T17:26:28.153Z,25.85
2022-11-22T17:28:28.167Z,25.85
2022-11-22T17:30:28.079Z,25.84
2022-11-22T17:32:28.197Z,25.90
2022-11-22T17:34:28.426Z,25.91
2022-11-22T17:36:28.023Z,25.80
2022-11-22T17:38:28.186Z,25.86
2022-11-22T17:40:28.200Z,25.83
2022-11-22T17:42:28.160Z,25.90
2022-11-22T17:44:28.198Z,25.83
2022-11-22T17:46:28.157Z,25.96
2022-11-22T17:48:28.188Z,25.92
2022-11-22T17:50:28.242Z,25.82
2022-11-22T17:52:28.201Z,25.83
2022-11-22T17:54:28.163Z,25.76
2022-11-22T17:56:28.052Z,25.78
2022-11-22T17:58:28.204Z,25.88
2022-11-22T18:00:30.244Z,25.73
2022-11-22T18:02:28.200Z,25.81
2022-11-22T18:04:28.396Z,25.80
2022-11-22T18:06:28.203Z,25.79
2022-11-22T18:08:28.198Z,25.75
2022-11-22T18:10:28.228Z,25.79
2022-11-22T18:12:28.198Z,25.82
2022-11-22T18:14:28.162Z,25.76
2022-11-22T18:16:28.117Z,25.75
2022-11-22T18:18:55.261Z,25.75
2022-11-22T18:20:28.196Z,25.58
2022-11-22T18:22:28.125Z,25.74
2022-11-22T18:24:28.163Z,25.75
2022-11-22T18:26:40.276Z,25.57
2022-11-22T18:28:28.282Z,25.52
2022-11-22T18:30:28.175Z,25.37
2022-11-22T18:32:28.219Z,25.63
2022-11-22T18:34:28.597Z,25.53
2022-11-22T18:36:54.123Z,25.81
2022-11-22T18:38:28.280Z,25.83
2022-11-22T18:40:28.095Z,25.79
2022-11-22T18:42:28.236Z,25.58
2022-11-22T18:44:28.203Z,25.83
2022-11-22T18:46:28.257Z,25.82
2022-11-22T18:48:28.256Z,25.80
2022-11-22T18:50:28.335Z,25.81
2022-11-22T18:52:28.179Z,25.79
2022-11-22T18:54:28.182Z,25.75
2022-11-22T18:56:28.262Z,25.79
2022-11-22T18:58:30.904Z,25.83
2022-11-22T19:00:28.154Z,25.78
2022-11-22T19:02:28.263Z,25.80
2022-11-22T19:04:28.347Z,25.82
2022-11-22T19:06:28.229Z,25.80
2022-11-22T19:08:28.274Z,25.85
2022-11-22T19:10:28.289Z,25.75
2022-11-22T19:12:28.323Z,25.75
2022-11-22T19:14:28.826Z,25.75
2022-11-22T19:16:28.229Z,25.81
2022-11-22T19:18:31.492Z,25.74
2022-11-22T19:20:54.137Z,25.75
2022-11-22T19:22:28.126Z,25.75
2022-11-22T19:24:28.435Z,25.80
2022-11-22T19:26:28.291Z,25.65
2022-11-22T19:28:28.288Z,25.65
2022-11-22T19:30:28.333Z,25.78
2022-11-22T19:32:28.294Z,25.65
2022-11-22T19:34:28.201Z,25.62
2022-11-22T19:36:33.412Z,25.51
2022-11-22T19:38:28.302Z,25.80
2022-11-22T19:40:28.445Z,25.80
2022-11-22T19:42:28.299Z,25.72
2022-11-22T19:44:28.300Z,25.58
2022-11-22T19:46:28.146Z,25.65
2022-11-22T19:48:28.394Z,25.78
2022-11-22T19:50:28.305Z,25.82
2022-11-22T19:52:28.299Z,25.61
2022-11-22T19:54:28.342Z,25.50
2022-11-22T19:56:28.204Z,25.58
2022-11-22T19:58:28.323Z,25.52
2022-11-22T20:00:28.342Z,25.80
2022-11-22T20:02:28.344Z,25.79
2022-11-22T20:04:28.347Z,25.78
2022-11-22T20:06:28.335Z,25.72
2022-11-22T20:08:28.254Z,25.65
2022-11-22T20:10:28.227Z,25.80
2022-11-22T20:12:28.328Z,25.65
2022-11-22T20:14:28.658Z,25.65
2022-11-22T20:16:28.245Z,25.61
2022-11-22T20:18:28.290Z,25.53
2022-11-22T20:20:28.293Z,25.40
2022-11-22T20:22:28.237Z,25.56
2022-11-22T20:24:28.762Z,25.51
2022-11-22T20:26:28.307Z,25.56
2022-11-22T20:28:28.371Z,25.71
2022-11-22T20:30:28.254Z,25.65
2022-11-22T20:32:28.300Z,25.65
2022-11-22T20:34:28.438Z,25.51
2022-11-22T20:36:28.391Z,25.72
2022-11-22T20:38:28.365Z,25.65
2022-11-22T20:40:28.367Z,25.74
2022-11-22T20:42:34.672Z,25.65
2022-11-22T20:44:28.818Z,25.80
2022-11-22T20:46:28.362Z,25.89
2022-11-22T20:48:28.567Z,25.83
2022-11-22T20:50:28.333Z,25.72
2022-11-22T20:52:28.481Z,25.75
2022-11-22T20:54:28.583Z,25.65
2022-11-22T20:56:28.380Z,25.65
2022-11-22T20:58:28.385Z,25.72
2022-11-22T21:00:28.304Z,25.54
2022-11-22T21:02:28.369Z,25.81
2022-11-22T21:04:28.725Z,25.84
2022-11-22T21:06:28.277Z,25.80
2022-11-22T21:08:28.369Z,25.84
2022-11-22T21:10:28.295Z,25.78
2022-11-22T21:12:28.393Z,25.79
2022-11-22T21:14:28.474Z,25.78
2022-11-22T21:16:28.479Z,25.75
2022-11-22T21:18:28.414Z,25.83
2022-11-22T21:20:28.443Z,25.76
2022-11-22T21:22:31.726Z,25.61
2022-11-22T21:24:28.615Z,25.78
2022-11-22T21:26:28.423Z,25.74
2022-11-22T21:28:28.336Z,25.77
2022-11-22T21:30:28.268Z,25.81
2022-11-22T21:32:28.383Z,25.78
2022-11-22T21:34:28.645Z,25.85
2022-11-22T21:36:28.446Z,25.80
2022-11-22T21:38:31.197Z,25.80
2022-11-22T21:40:28.270Z,25.79
2022-11-22T21:42:28.430Z,25.80
2022-11-22T21:44:28.705Z,25.80
2022-11-22T21:46:28.448Z,25.80
2022-11-22T21:48:28.346Z,25.77
2022-11-22T21:50:28.444Z,25.61
2022-11-22T21:52:28.402Z,25.58
2022-11-22T21:54:28.555Z,25.60
2022-11-22T21:56:28.457Z,25.83
2022-11-22T21:58:28.467Z,25.75
2022-11-22T22:00:28.415Z,25.77
2022-11-22T22:02:28.381Z,25.80
2022-11-22T22:04:28.462Z,25.80
2022-11-22T22:06:28.435Z,25.78
2022-11-22T22:08:28.542Z,25.82
2022-11-22T22:10:28.442Z,25.80
2022-11-22T22:12:28.434Z,25.83
2022-11-22T22:14:28.414Z,25.80
2022-11-22T22:16:28.310Z,25.80
2022-11-22T22:18:28.456Z,25.80
2022-11-22T22:20:28.432Z,25.81
2022-11-22T22:22:28.467Z,25.80
2022-11-22T22:24:28.489Z,25.80
2022-11-22T22:26:28.472Z,25.82
2022-11-22T22:28:28.503Z,25.72
2022-11-22T22:30:28.491Z,25.60
2022-11-22T22:32:28.470Z,25.72
2022-11-22T22:34:28.489Z,25.60
2022-11-22T22:36:28.447Z,25.44
2022-11-22T22:38:28.454Z,25.32
2022-11-22T22:40:28.416Z,25.64
2022-11-22T22:42:28.395Z,25.77
2022-11-22T22:44:28.498Z,25.65
2022-11-22T22:46:28.432Z,25.75
2022-11-22T22:48:28.398Z,25.65
2022-11-22T22:50:28.525Z,25.73
2022-11-22T22:52:28.500Z,25.77
2022-11-22T22:54:28.456Z,25.79
2022-11-22T22:56:28.483Z,25.83
2022-11-22T22:58:28.482Z,25.81
2022-11-22T23:00:28.483Z,25.90
2022-11-22T23:02:28.515Z,25.85
2022-11-22T23:04:28.457Z,25.88
2022-11-22T23:06:28.512Z,25.81
2022-11-22T23:08:28.515Z,25.85
2022-11-22T23:10:28.510Z,25.95
2022-11-22T23:12:28.521Z,25.91
2022-11-22T23:14:28.432Z,25.80
2022-11-22T23:16:28.524Z,25.74
2022-11-22T23:18:28.538Z,25.80
2022-11-22T23:20:28.534Z,25.80
2022-11-22T23:22:28.395Z,25.86
2022-11-22T23:24:28.427Z,25.82
2022-11-22T23:26:28.485Z,25.83
2022-11-22T23:28:28.547Z,25.82
2022-11-22T23:30:28.527Z,25.81
2022-11-22T23:32:28.587Z,25.86
2022-11-22T23:34:28.450Z,25.82
2022-11-22T23:36:28.535Z,25.81
2022-11-22T23:38:28.497Z,25.83
2022-11-22T23:40:28.556Z,25.86
2022-11-22T23:42:28.399Z,25.82
2022-11-22T23:44:28.446Z,25.83
2022-11-22T23:46:28.511Z,25.80
2022-11-22T23:48:28.563Z,25.89
2022-11-22T23:50:28.574Z,25.86
2022-11-22T23:52:28.592Z,25.79
2022-11-22T23:54:28.565Z,25.89
2022-11-22T23:56:28.564Z,25.78
2022-11-22T23:58:28.438Z,25.82
